createdAt,value
2022-11-19T00:01:33.916Z,14.20
2022-11-19T00:04:02.595Z,14.32
2022-11-19T00:06:31.706Z,14.33
2022-11-19T00:08:59.079Z,14.32
2022-11-19T00:11:47.456Z,14.38
2022-11-19T00:14:16.297Z,14.40
2022-11-19T00:16:47.699Z,14.41
2022-11-19T00:19:14.825Z,14.31
2022-11-19T00:21:42.680Z,14.38
2022-11-19T00:24:11.297Z,14.36
2022-11-19T00:26:38.952Z,14.36
2022-11-19T00:29:06.009Z,14.34
2022-11-19T00:31:33.488Z,14.34
2022-11-19T00:34:01.337Z,14.34
2022-11-19T00:36:28.764Z,14.38
2022-11-19T00:38:56.594Z,14.39
2022-11-19T00:41:23.863Z,14.42
2022-11-19T00:43:51.134Z,14.37
2022-11-19T00:46:23.999Z,14.44
2022-11-19T00:48:52.986Z,14.35
2022-11-19T00:51:22.207Z,14.40
2022-11-19T00:53:49.533Z,14.40
2022-11-19T00:56:20.986Z,14.34
2022-11-19T00:58:48.536Z,14.37
2022-11-19T01:01:18.115Z,14.35
2022-11-19T01:03:46.220Z,14.35
2022-11-19T01:06:18.646Z,14.27
2022-11-19T01:08:48.019Z,14.21
2022-11-19T01:11:18.340Z,14.16
2022-11-19T01:13:47.703Z,14.07
2022-11-19T01:16:21.430Z,14.04
2022-11-19T01:18:51.448Z,14.10
2022-11-19T01:21:23.089Z,14.08
2022-11-19T01:23:51.062Z,14.02
2022-11-19T01:26:19.381Z,14.02
2022-11-19T01:28:47.119Z,14.01
2022-11-19T01:31:16.884Z,13.91
2022-11-19T01:33:45.202Z,13.95
2022-11-19T01:36:23.585Z,13.93
2022-11-19T01:38:55.301Z,13.94
2022-11-19T01:41:28.289Z,13.96
2022-11-19T01:44:01.620Z,13.94
2022-11-19T01:46:32.935Z,13.88
2022-11-19T01:49:10.894Z,13.83
2022-11-19T01:51:43.912Z,13.84
2022-11-19T01:54:18.918Z,13.77
2022-11-19T01:56:47.012Z,13.85
2022-11-19T01:59:19.471Z,13.79
2022-11-19T02:01:50.933Z,13.88
2022-11-19T02:04:20.933Z,13.87
2022-11-19T02:06:48.505Z,13.89
2022-11-19T02:09:16.144Z,13.93
2022-11-19T02:12:07.898Z,13.91
2022-11-19T02:14:42.393Z,13.93
2022-11-19T02:17:27.668Z,13.90
2022-11-19T02:20:27.318Z,13.94
2022-11-19T02:23:32.415Z,13.95
2022-11-19T02:26:39.009Z,13.89
2022-11-19T02:29:30.354Z,13.93
2022-11-19T02:32:02.092Z,13.92
2022-11-19T02:35:02.405Z,13.83
2022-11-19T02:37:51.261Z,13.87
2022-11-19T02:40:28.524Z,13.77
2022-11-19T02:43:20.003Z,13.76
2022-11-19T02:45:54.835Z,13.71
2022-11-19T02:48:34.986Z,13.67
2022-11-19T02:51:05.037Z,13.62
2022-11-19T02:53:33.538Z,13.65
2022-11-19T02:56:13.259Z,13.63
2022-11-19T02:59:11.646Z,13.63
2022-11-19T03:02:02.926Z,13.62
2022-11-19T03:04:31.041Z,13.52
2022-11-19T03:07:04.587Z,13.55
2022-11-19T03:09:33.785Z,13.54
2022-11-19T03:12:21.421Z,13.58
2022-11-19T03:15:16.108Z,13.54
2022-11-19T03:18:11.136Z,13.58
2022-11-19T03:20:46.597Z,13.40
2022-11-19T03:23:30.399Z,13.58
2022-11-19T03:26:04.156Z,13.58
2022-11-19T03:28:38.549Z,13.56
2022-11-19T03:31:07.465Z,13.49
2022-11-19T03:33:43.518Z,13.55
2022-11-19T03:36:24.269Z,13.53
2022-11-19T03:38:56.291Z,13.49
2022-11-19T03:41:25.734Z,13.51
2022-11-19T03:43:58.799Z,13.52
2022-11-19T03:46:29.180Z,13.48
2022-11-19T03:48:58.973Z,13.37
2022-11-19T03:51:48.326Z,13.36
2022-11-19T03:54:15.802Z,13.42
2022-11-19T03:56:45.565Z,13.39
2022-11-19T03:59:13.589Z,13.41
2022-11-19T04:01:41.573Z,13.33
2022-11-19T04:04:27.442Z,13.33
2022-11-19T04:06:56.915Z,13.33
2022-11-19T04:09:24.729Z,13.36
2022-11-19T04:14:17.853Z,13.34
2022-11-19T04:16:45.159Z,13.37
2022-11-19T04:19:15.349Z,13.37
2022-11-19T04:21:42.623Z,13.37
2022-11-19T04:24:10.720Z,13.34
2022-11-19T04:26:37.852Z,13.29
2022-11-19T04:29:08.228Z,13.29
2022-11-19T04:31:36.590Z,13.25
2022-11-19T04:34:05.166Z,13.21
2022-11-19T04:36:32.540Z,13.17
2022-11-19T04:39:01.281Z,13.12
2022-11-19T04:41:29.320Z,13.09
2022-11-19T04:43:56.499Z,12.98
2022-11-19T04:46:23.767Z,13.02
2022-11-19T04:48:51.737Z,13.04
2022-11-19T04:51:19.079Z,12.94
2022-11-19T04:53:46.337Z,13.03
2022-11-19T04:56:13.480Z,13.02
2022-11-19T04:58:43.884Z,13.00
2022-11-19T05:01:13.013Z,13.01
2022-11-19T05:03:41.649Z,12.90
2022-11-19T05:06:09.553Z,12.91
2022-11-19T05:08:38.138Z,12.91
2022-11-19T05:11:06.079Z,12.86
2022-11-19T05:13:34.377Z,12.90
2022-11-19T05:16:02.749Z,12.88
2022-11-19T05:18:30.605Z,12.86
2022-11-19T05:20:58.518Z,12.90
2022-11-19T05:23:28.801Z,12.90
2022-11-19T05:26:00.941Z,12.84
2022-11-19T05:28:39.190Z,12.89
2022-11-19T05:31:08.714Z,12.86
2022-11-19T05:33:36.798Z,12.85
2022-11-19T05:36:05.269Z,12.90
2022-11-19T05:38:33.236Z,12.85
2022-11-19T05:41:00.265Z,12.81
2022-11-19T05:43:28.495Z,12.80
2022-11-19T05:46:04.614Z,12.78
2022-11-19T05:48:31.986Z,12.78
2022-11-19T05:50:59.755Z,12.89
2022-11-19T05:53:27.350Z,12.94
2022-11-19T05:55:55.105Z,12.95
2022-11-19T05:58:25.431Z,13.02
2022-11-19T06:00:57.233Z,13.02
2022-11-19T06:03:24.623Z,13.00
2022-11-19T06:05:55.317Z,13.02
2022-11-19T06:08:23.515Z,13.01
2022-11-19T06:10:51.461Z,13.05
2022-11-19T06:13:19.883Z,12.94
2022-11-19T06:15:47.664Z,12.99
2022-11-19T06:18:15.413Z,13.04
2022-11-19T06:20:43.129Z,13.04
2022-11-19T06:23:10.445Z,13.13
2022-11-19T06:25:38.582Z,13.24
2022-11-19T06:28:09.105Z,13.29
2022-11-19T06:30:36.928Z,13.32
2022-11-19T06:33:06.981Z,13.42
2022-11-19T06:35:35.254Z,13.43
2022-11-19T06:38:03.193Z,13.51
2022-11-19T06:40:30.552Z,13.55
2022-11-19T06:42:58.469Z,13.65
2022-11-19T06:45:26.235Z,13.60
2022-11-19T06:47:53.981Z,13.66
2022-11-19T06:50:22.159Z,13.66
2022-11-19T06:52:49.811Z,13.74
2022-11-19T06:55:18.146Z,13.75
2022-11-19T06:57:45.408Z,13.86
2022-11-19T07:00:14.572Z,13.95
2022-11-19T07:02:42.102Z,13.97
2022-11-19T07:05:19.076Z,14.09
2022-11-19T07:07:46.362Z,14.14
2022-11-19T07:10:14.190Z,14.19
2022-11-19T07:12:44.149Z,14.17
2022-11-19T07:15:12.199Z,14.24
2022-11-19T07:17:40.753Z,14.34
2022-11-19T07:20:08.962Z,14.29
2022-11-19T07:22:36.799Z,14.32
2022-11-19T07:25:04.385Z,14.42
2022-11-19T07:27:32.376Z,14.37
2022-11-19T07:29:59.548Z,14.41
2022-11-19T07:32:27.374Z,14.40
2022-11-19T07:34:55.013Z,14.46
2022-11-19T07:37:22.499Z,14.50
2022-11-19T07:39:53.933Z,14.41
2022-11-19T07:42:42.925Z,14.29
2022-11-19T07:45:10.360Z,14.34
2022-11-19T07:47:38.372Z,14.39
2022-11-19T07:50:06.214Z,14.50
2022-11-19T07:52:33.948Z,14.62
2022-11-19T07:55:05.011Z,14.68
2022-11-19T07:57:34.809Z,14.73
2022-11-19T08:00:03.226Z,14.84
2022-11-19T08:02:40.088Z,14.81
2022-11-19T08:05:08.089Z,14.91
2022-11-19T08:07:38.321Z,14.88
2022-11-19T08:10:07.346Z,14.86
2022-11-19T08:12:35.491Z,14.89
2022-11-19T08:15:05.664Z,14.80
2022-11-19T08:17:51.927Z,14.81
2022-11-19T08:20:19.841Z,14.82
2022-11-19T08:22:47.417Z,14.89
2022-11-19T08:25:15.016Z,14.85
2022-11-19T08:27:42.161Z,14.89
2022-11-19T08:30:10.147Z,15.00
2022-11-19T08:32:37.896Z,15.03
2022-11-19T08:35:06.462Z,14.98
2022-11-19T08:37:33.814Z,15.01
2022-11-19T08:40:06.838Z,15.08
2022-11-19T08:42:55.299Z,15.03
2022-11-19T08:45:25.156Z,15.09
2022-11-19T08:47:53.191Z,15.09
2022-11-19T08:50:21.352Z,15.12
2022-11-19T08:53:00.494Z,15.18
2022-11-19T08:55:33.163Z,15.17
2022-11-19T08:58:08.089Z,15.27
2022-11-19T09:00:37.935Z,14.88
2022-11-19T09:03:05.447Z,15.32
2022-11-19T09:05:33.198Z,15.21
2022-11-19T09:08:00.313Z,15.25
2022-11-19T09:10:28.249Z,15.41
2022-11-19T09:12:55.923Z,15.47
2022-11-19T09:15:26.842Z,15.41
2022-11-19T09:17:56.772Z,15.42
2022-11-19T09:20:23.945Z,15.49
2022-11-19T09:22:52.097Z,15.62
2022-11-19T09:25:19.379Z,15.72
2022-11-19T09:27:49.434Z,15.78
2022-11-19T09:30:17.319Z,15.68
2022-11-19T09:32:45.424Z,15.70
2022-11-19T09:35:15.633Z,15.73
2022-11-19T09:37:43.551Z,15.90
2022-11-19T09:40:21.899Z,15.95
2022-11-19T09:43:15.892Z,16.04
2022-11-19T09:45:43.132Z,16.10
2022-11-19T09:48:10.171Z,16.13
2022-11-19T09:51:04.362Z,16.30
2022-11-19T09:53:44.350Z,16.48
2022-11-19T09:56:18.693Z,16.56
2022-11-19T09:58:46.630Z,16.61
2022-11-19T10:01:22.917Z,16.64
2022-11-19T10:03:53.950Z,16.67
2022-11-19T10:07:11.452Z,16.62
2022-11-19T10:10:12.347Z,16.54
2022-11-19T10:13:11.879Z,16.72
2022-11-19T10:16:18.665Z,16.53
2022-11-19T10:19:28.540Z,16.56
2022-11-19T10:22:30.140Z,16.64
2022-11-19T10:25:26.114Z,16.59
2022-11-19T10:28:04.289Z,16.51
2022-11-19T10:30:32.219Z,16.53
2022-11-19T10:33:12.446Z,16.57
2022-11-19T10:35:48.568Z,16.55
2022-11-19T10:38:37.944Z,16.44
2022-11-19T10:42:07.831Z,16.57
2022-11-19T10:44:53.054Z,16.77
2022-11-19T10:47:59.052Z,16.81
2022-11-19T10:50:27.273Z,16.74
2022-11-19T10:53:07.482Z,16.85
2022-11-19T10:55:57.715Z,17.07
2022-11-19T10:58:35.555Z,17.19
2022-11-19T11:01:05.997Z,17.15
2022-11-19T11:03:49.708Z,17.21
2022-11-19T11:06:17.228Z,17.38
2022-11-19T11:08:54.070Z,17.44
2022-11-19T11:11:58.340Z,17.51
2022-11-19T11:14:47.616Z,17.67
2022-11-19T11:17:25.480Z,17.53
2022-11-19T11:20:03.892Z,17.65
2022-11-19T11:22:32.277Z,17.81
2022-11-19T11:25:07.210Z,17.78
2022-11-19T11:27:36.077Z,17.71
2022-11-19T11:30:13.157Z,17.69
2022-11-19T11:32:42.239Z,17.72
2022-11-19T11:35:29.504Z,17.72
2022-11-19T11:37:57.455Z,17.82
2022-11-19T11:40:26.195Z,17.85
2022-11-19T11:42:54.535Z,17.94
2022-11-19T11:45:35.092Z,18.10
2022-11-19T11:48:09.309Z,18.02
2022-11-19T11:50:37.457Z,18.13
2022-11-19T11:53:15.293Z,18.00
2022-11-19T11:55:42.545Z,17.90
2022-11-19T11:58:34.952Z,17.97
2022-11-19T12:01:16.068Z,17.90
2022-11-19T12:04:01.185Z,17.83
2022-11-19T12:06:48.259Z,17.83
2022-11-19T12:09:21.558Z,17.80
2022-11-19T12:11:58.796Z,17.81
2022-11-19T12:14:50.962Z,17.86
2022-11-19T12:17:21.491Z,17.94
2022-11-19T12:20:03.919Z,17.89
2022-11-19T12:22:57.996Z,18.09
2022-11-19T12:25:47.903Z,18.03
2022-11-19T12:28:21.287Z,18.01
2022-11-19T12:31:11.672Z,17.97
2022-11-19T12:33:58.251Z,17.91
2022-11-19T12:36:45.337Z,17.81
2022-11-19T12:39:40.764Z,17.82
2022-11-19T12:42:14.321Z,17.75
2022-11-19T12:44:59.898Z,17.67
2022-11-19T12:47:27.081Z,17.67
2022-11-19T12:50:23.686Z,17.57
2022-11-19T12:53:23.264Z,17.46
2022-11-19T12:56:03.826Z,17.53
2022-11-19T12:58:39.544Z,17.52
2022-11-19T13:01:17.578Z,17.60
2022-11-19T13:03:59.962Z,17.61
2022-11-19T13:06:37.170Z,17.61
2022-11-19T13:09:13.564Z,17.63
2022-11-19T13:11:49.694Z,17.62
2022-11-19T13:14:30.609Z,17.66
2022-11-19T13:17:00.581Z,17.67
2022-11-19T13:19:37.008Z,17.77
2022-11-19T13:22:12.751Z,17.71
2022-11-19T13:25:04.021Z,17.70
2022-11-19T13:27:32.304Z,17.53
2022-11-19T13:30:07.030Z,17.54
2022-11-19T13:33:03.300Z,17.55
2022-11-19T13:36:09.391Z,17.33
2022-11-19T13:39:12.726Z,17.29
2022-11-19T13:42:14.032Z,17.29
2022-11-19T13:44:41.933Z,17.30
2022-11-19T13:47:42.363Z,17.26
2022-11-19T13:50:18.863Z,17.18
2022-11-19T13:53:04.186Z,17.12
2022-11-19T13:55:35.662Z,16.99
2022-11-19T13:58:16.389Z,16.92
2022-11-19T14:01:08.075Z,16.65
2022-11-19T14:03:44.279Z,16.81
2022-11-19T14:06:32.180Z,16.72
2022-11-19T14:09:38.320Z,16.64
2022-11-19T14:12:12.209Z,16.57
2022-11-19T14:14:58.283Z,16.53
2022-11-19T14:17:46.538Z,16.50
2022-11-19T14:20:52.629Z,16.43
2022-11-19T14:23:56.884Z,16.36
2022-11-19T14:26:53.751Z,16.18
2022-11-19T14:29:27.046Z,16.30
2022-11-19T14:32:00.910Z,16.25
2022-11-19T14:34:31.422Z,16.21
2022-11-19T14:37:03.396Z,16.17
2022-11-19T14:39:40.238Z,16.13
2022-11-19T14:42:20.419Z,16.05
2022-11-19T14:45:06.029Z,15.96
2022-11-19T14:47:39.259Z,15.91
2022-11-19T14:50:27.852Z,15.85
2022-11-19T14:52:58.422Z,15.90
2022-11-19T14:55:31.651Z,15.85
2022-11-19T14:58:05.582Z,15.84
2022-11-19T15:00:39.262Z,15.83
2022-11-19T15:03:15.948Z,15.86
2022-11-19T15:05:45.024Z,15.92
2022-11-19T15:08:18.642Z,15.88
2022-11-19T15:11:03.213Z,15.89
2022-11-19T15:13:36.199Z,15.84
2022-11-19T15:16:10.779Z,15.81
2022-11-19T15:18:41.028Z,15.80
2022-11-19T15:21:45.548Z,15.83
2022-11-19T15:24:24.583Z,15.86
2022-11-19T15:27:07.595Z,15.83
2022-11-19T15:29:53.035Z,15.78
2022-11-19T15:32:45.175Z,15.72
2022-11-19T15:35:18.471Z,15.73
2022-11-19T15:37:59.707Z,15.64
2022-11-19T15:40:30.299Z,15.63
2022-11-19T15:43:08.913Z,15.60
2022-11-19T15:45:52.484Z,15.64
2022-11-19T15:48:37.839Z,15.64
2022-11-19T15:51:07.981Z,15.56
2022-11-19T15:53:35.929Z,15.51
2022-11-19T15:56:07.826Z,15.55
2022-11-19T15:58:47.322Z,15.48
2022-11-19T16:01:17.470Z,15.41
2022-11-19T16:03:45.530Z,15.49
2022-11-19T16:06:25.714Z,15.46
2022-11-19T16:09:05.033Z,15.45
2022-11-19T16:11:56.234Z,15.44
2022-11-19T16:14:48.227Z,15.44
2022-11-19T16:17:32.948Z,15.16
2022-11-19T16:20:11.253Z,15.39
2022-11-19T16:22:43.573Z,15.37
2022-11-19T16:25:24.889Z,15.32
2022-11-19T16:27:57.210Z,15.30
2022-11-19T16:30:30.209Z,15.29
2022-11-19T16:33:01.522Z,15.30
2022-11-19T16:35:34.204Z,15.28
2022-11-19T16:38:02.198Z,15.23
2022-11-19T16:40:49.843Z,15.22
2022-11-19T16:43:19.182Z,15.23
2022-11-19T16:45:47.105Z,15.20
2022-11-19T16:48:52.602Z,15.13
2022-11-19T16:51:53.394Z,15.09
2022-11-19T16:54:42.710Z,15.11
2022-11-19T16:57:12.883Z,15.08
2022-11-19T16:59:52.254Z,15.11
2022-11-19T17:02:23.002Z,15.08
2022-11-19T17:04:54.192Z,15.01
2022-11-19T17:07:33.014Z,15.07
2022-11-19T17:10:29.386Z,15.08
2022-11-19T17:13:02.853Z,15.07
2022-11-19T17:15:34.971Z,15.06
2022-11-19T17:18:34.778Z,15.03
2022-11-19T17:21:21.184Z,14.96
2022-11-19T17:23:50.888Z,14.92
2022-11-19T17:26:27.488Z,14.91
2022-11-19T17:29:22.912Z,14.88
2022-11-19T17:31:59.486Z,14.83
2022-11-19T17:34:26.571Z,14.92
2022-11-19T17:36:53.784Z,14.88
2022-11-19T17:39:25.255Z,14.84
2022-11-19T17:42:14.159Z,14.76
2022-11-19T17:44:43.004Z,14.77
2022-11-19T17:47:23.803Z,14.75
2022-11-19T17:49:52.987Z,14.63
2022-11-19T17:52:28.805Z,14.65
2022-11-19T17:54:59.137Z,14.51
2022-11-19T17:57:26.552Z,14.50
2022-11-19T17:59:53.827Z,14.55
2022-11-19T18:02:21.935Z,14.54
2022-11-19T18:04:49.977Z,14.51
2022-11-19T18:07:21.584Z,14.54
2022-11-19T18:09:48.787Z,14.49
2022-11-19T18:12:18.798Z,14.56
2022-11-19T18:14:47.100Z,14.46
2022-11-19T18:17:15.931Z,14.49
2022-11-19T18:19:44.970Z,14.50
2022-11-19T18:22:20.249Z,14.49
2022-11-19T18:24:49.052Z,14.44
2022-11-19T18:27:17.561Z,14.39
2022-11-19T18:29:45.649Z,14.39
2022-11-19T18:32:16.373Z,14.36
2022-11-19T18:34:44.949Z,14.30
2022-11-19T18:37:13.475Z,14.18
2022-11-19T18:39:40.708Z,14.22
2022-11-19T18:42:14.962Z,14.25
2022-11-19T18:44:43.607Z,14.21
2022-11-19T18:47:15.531Z,14.19
2022-11-19T18:49:43.042Z,14.15
2022-11-19T18:52:25.037Z,14.08
2022-11-19T18:54:52.584Z,14.09
2022-11-19T18:57:19.864Z,14.12
2022-11-19T18:59:46.953Z,14.09
2022-11-19T19:02:14.308Z,14.09
2022-11-19T19:04:42.841Z,14.07
2022-11-19T19:07:10.439Z,14.00
2022-11-19T19:09:37.674Z,13.94
2022-11-19T19:12:17.904Z,13.96
2022-11-19T19:14:47.519Z,13.91
2022-11-19T19:17:16.116Z,13.85
2022-11-19T19:19:47.337Z,13.79
2022-11-19T19:22:16.393Z,13.68
2022-11-19T19:24:43.578Z,13.75
2022-11-19T19:27:12.075Z,13.65
2022-11-19T19:29:40.048Z,13.67
2022-11-19T19:32:09.137Z,13.65
2022-11-19T19:34:37.165Z,13.66
2022-11-19T19:37:05.439Z,13.61
2022-11-19T19:39:32.578Z,13.62
2022-11-19T19:42:00.864Z,13.63
2022-11-19T19:44:28.571Z,13.57
2022-11-19T19:46:55.822Z,13.62
2022-11-19T19:49:24.418Z,13.54
2022-11-19T19:51:53.334Z,13.59
2022-11-19T19:54:22.429Z,13.60
2022-11-19T19:56:53.876Z,13.62
2022-11-19T19:59:21.877Z,13.53
2022-11-19T20:01:50.880Z,13.45
2022-11-19T20:04:24.370Z,13.39
2022-11-19T20:06:55.156Z,13.36
2022-11-19T20:09:23.724Z,13.32
2022-11-19T20:11:51.841Z,13.31
2022-11-19T20:14:19.070Z,13.34
2022-11-19T20:16:47.126Z,13.34
2022-11-19T20:19:15.324Z,13.28
2022-11-19T20:21:43.280Z,13.23
2022-11-19T20:24:13.619Z,13.16
2022-11-19T20:26:46.047Z,13.13
2022-11-19T20:29:14.328Z,13.10
2022-11-19T20:31:49.102Z,13.02
2022-11-19T20:34:16.924Z,13.04
2022-11-19T20:36:45.136Z,12.97
2022-11-19T20:39:13.320Z,12.91
2022-11-19T20:41:58.786Z,12.91
2022-11-19T20:44:26.644Z,12.81
2022-11-19T20:47:03.490Z,12.78
2022-11-19T20:49:36.749Z,12.72
2022-11-19T20:52:04.545Z,12.73
2022-11-19T20:54:33.006Z,12.68
2022-11-19T20:57:00.991Z,12.65
2022-11-19T20:59:29.311Z,12.64
2022-11-19T21:01:57.466Z,12.59
2022-11-19T21:04:27.487Z,12.57
2022-11-19T21:06:54.985Z,12.56
2022-11-19T21:09:24.064Z,12.55
2022-11-19T21:11:52.404Z,12.53
2022-11-19T21:14:19.750Z,12.53
2022-11-19T21:16:47.306Z,12.45
2022-11-19T21:19:14.523Z,12.45
2022-11-19T21:21:42.656Z,12.39
2022-11-19T21:24:10.871Z,12.38
2022-11-19T21:26:38.544Z,12.34
2022-11-19T21:29:07.310Z,12.39
2022-11-19T21:31:45.260Z,12.32
2022-11-19T21:34:19.334Z,12.33
2022-11-19T21:36:49.807Z,12.30
2022-11-19T21:39:19.195Z,12.32
2022-11-19T21:41:46.781Z,12.28
2022-11-19T21:44:21.550Z,12.28
2022-11-19T21:46:54.437Z,12.28
2022-11-19T21:49:22.903Z,12.19
2022-11-19T21:51:52.092Z,12.22
2022-11-19T21:54:24.940Z,12.18
2022-11-19T21:56:57.352Z,12.23
2022-11-19T21:59:24.655Z,12.26
2022-11-19T22:01:54.683Z,12.28
2022-11-19T22:04:21.854Z,12.18
2022-11-19T22:06:49.106Z,12.10
2022-11-19T22:09:16.153Z,12.01
2022-11-19T22:11:45.045Z,12.04
2022-11-19T22:14:12.686Z,11.98
2022-11-19T22:16:42.228Z,11.95
2022-11-19T22:19:12.144Z,11.86
2022-11-19T22:21:40.563Z,11.93
2022-11-19T22:24:12.821Z,11.93
2022-11-19T22:26:40.057Z,11.93
2022-11-19T22:29:07.181Z,11.90
2022-11-19T22:31:34.310Z,11.83
2022-11-19T22:34:01.392Z,11.84
2022-11-19T22:36:31.556Z,11.86
2022-11-19T22:38:59.827Z,11.80
2022-11-19T22:41:27.193Z,11.80
2022-11-19T22:43:54.407Z,11.80
2022-11-19T22:46:22.191Z,11.74
2022-11-19T22:48:49.544Z,11.66
2022-11-19T22:51:23.701Z,11.72
2022-11-19T22:53:52.820Z,11.61
2022-11-19T22:56:23.049Z,11.62
2022-11-19T22:58:50.754Z,11.60
2022-11-19T23:01:24.250Z,11.53
2022-11-19T23:03:52.795Z,11.56
2022-11-19T23:06:20.602Z,11.56
2022-11-19T23:08:48.820Z,11.49
2022-11-19T23:11:38.278Z,11.58
2022-11-19T23:14:11.652Z,11.48
2022-11-19T23:16:39.674Z,11.62
2022-11-19T23:19:07.873Z,11.58
2022-11-19T23:21:35.176Z,11.62
2022-11-19T23:24:02.999Z,11.59
2022-11-19T23:26:32.023Z,11.65
2022-11-19T23:28:59.779Z,11.61
2022-11-19T23:31:35.609Z,11.61
2022-11-19T23:34:02.829Z,11.60
2022-11-19T23:36:36.508Z,11.65
2022-11-19T23:39:05.524Z,11.69
2022-11-19T23:41:33.914Z,11.69
2022-11-19T23:44:01.972Z,11.68
2022-11-19T23:46:32.093Z,11.64
2022-11-19T23:49:00.282Z,11.66
2022-11-19T23:51:31.011Z,11.65
2022-11-19T23:53:59.028Z,11.66
2022-11-19T23:56:27.294Z,11.74
2022-11-19T23:58:54.807Z,11.73
